Balfour, Canada
Current Conditions -  °F | °C
As of 2:00 PM on Wednesday 28 Jan 2015 (Local Time) from CYXC Reporting Station
Few Clouds Few Clouds  
Wind Chill: 38°   Ceiling: Unl
Heat Index: 41°   Visibility: 25mi
Dew Point: 28°   Wind: 5mph
Humidity: 61%   Direction: 70°ENE
Pressure: 30.32"   Gusts: NA
Location:  49.63°N, 116.97°W
Report Text: CYXC 282200Z 07004KT 050V120 25SM FEW045 FEW250 05/M02 A3032 RMK SC1CI1 CI TR SLP299
Loading
Personal Weather Stations






























Interactive Weather Map New forecast layout! Learn more

10-Day Weather Forecast

Advertisements
Track Severe Weather on mobile